(°C)
-3°
-3°
-2°
-2°
-2°
-2°
-2°
(°C)
-10°
-10°
-9°
-9°
-9°
-9°
-9°
NNO
NNO
NNO
NNO
NNO
NNO
NNO
(km/h)
20-33
21-33
21-33
21-34
22-34
22-34
22-34
(mm)
0
0
0
0
0
0
0
(%)
30
30
30
30
20
10
1

Sonnenhöhe

/ 5.2°
sun-icon
UV 1
07:01
16:43
Abnehmender Mond (220°)
20:31
09:22

METAR für Barnstable (KHYA)

Zeit Bedingungen Temperatur/
Taupunkt
Wind Sichtweite Wetter Wolken Druck Änderung Roh
MVFR -2.8°C / -7.8°C 10º 10kt Gust 19kt 9700m Light Snow 0.13mm precipitation Scattered Clouds 800ft
Broken Clouds 2300ft
Overcast 3600ft
- KHYA 211222Z 01010G19KT 6SM -SN SCT008 BKN023 OVC036 M03/M08 A3041 RMK AO2 SNB01 P0000 T10281078
MVFR -2.8°C / -8.3°C 360º 12kt Gust 20kt >10km 0.13mm precipitation Scattered Clouds 2300ft
Broken Clouds 2900ft
Overcast 3600ft
1029 - KHYA 211156Z 36012G20KT 10SM SCT023 BKN029 OVC036 M03/M08 A3040 RMK AO2 SNE50 SLP295 P0000 60000 70009 T10281083 11011 21028 53026
MVFR -2.2°C / -7.8°C 360º 12kt Gust 20kt 9700m Light Snow 0.13mm precipitation Broken Clouds 2300ft
Overcast 3300ft
1028 - KHYA 211056Z 36012G20KT 6SM -SN BKN023 OVC033 M02/M08 A3037 RMK AO2 SNB03 SLP287 P0000 T10221078
MVFR -2.2°C / -7.8°C 10º 9kt Gust 21kt >10km Light Snow 0.13mm precipitation Scattered Clouds 2300ft
Broken Clouds 2900ft
Overcast 3800ft
- KHYA 211020Z AUTO 01009G21KT 8SM -SN SCT023 BKN029 OVC038 M02/M08 A3034 RMK AO2 SNB03 P0000 T10221078
VFR -2.2°C / -8.3°C 20º 11kt Gust 20kt >10km Light Snow 0.13mm precipitation Scattered Clouds 2700ft
Overcast 3800ft
- KHYA 211003Z AUTO 02011G20KT 10SM -SN SCT027 OVC038 M02/M08 A3035 RMK AO2 SNB03 P0000 T10221083
MVFR -2.2°C / -8.3°C 30º 12kt Gust 20kt >10km - Broken Clouds 2700ft
Overcast 3800ft
1027 - KHYA 210956Z AUTO 03012G20KT 10SM BKN027 OVC038 M02/M08 A3034 RMK AO2 SLP276 T10221083
VFR -2.2°C / -7.2°C 10º 14kt >10km 0.13mm precipitation Few Clouds 2200ft
Few Clouds 2900ft
Overcast 3600ft
1026 - KHYA 210856Z AUTO 01014KT 9SM FEW022 FEW029 OVC036 M02/M07 A3032 RMK AO2 SNE54 SLP269 P0000 60000 T10221072 50005
MVFR -1.7°C / -6.1°C 10º 13kt Gust 22kt 9700m Light Snow 0.13mm precipitation Broken Clouds 1900ft
Broken Clouds 2700ft
Overcast 3500ft
1026 - KHYA 210756Z AUTO 01013G22KT 6SM -SN BKN019 BKN027 OVC035 M02/M06 A3032 RMK AO2 SNB05 SLP268 P0000 T10171061
MVFR -1.7°C / -7.2°C 20º 16kt Gust 24kt >10km Light Snow 0.13mm precipitation Scattered Clouds 2100ft
Broken Clouds 2800ft
Overcast 3500ft
- KHYA 210707Z AUTO 02016G24KT 8SM -SN SCT021 BKN028 OVC035 M02/M07 A3031 RMK AO2 SNB05 P0000 T10171072
VFR -1.1°C / -7.2°C 360º 12kt Gust 20kt >10km 0.13mm precipitation Few Clouds 2300ft
Overcast 3300ft
1026 - KHYA 210656Z AUTO 36012G20KT 10SM FEW023 OVC033 M01/M07 A3031 RMK AO2 SNB26E38 SLP264 P0000 T10111072
MVFR -1.1°C / -6.7°C 350º 13kt Gust 22kt >10km - Broken Clouds 2800ft
Overcast 3500ft
1025 - KHYA 210556Z AUTO 35013G22KT 10SM BKN028 OVC035 M01/M07 A3029 RMK AO2 SLP257 T10111067 10017 21011 53014
MVFR -1.1°C / -7.8°C 350º 14kt Gust 22kt >10km - Broken Clouds 2900ft
Overcast 5000ft
1025 - KHYA 210456Z AUTO 35014G22KT 10SM BKN029 OVC050 M01/M08 A3026 RMK AO2 SLP250 T10111078 400781011
MVFR -1.1°C / -7.8°C 360º 14kt Gust 22kt >10km - Broken Clouds 2900ft
Broken Clouds 5500ft
- KHYA 210431Z AUTO 36014G22KT 10SM BKN029 BKN055 M01/M08 A3027 RMK AO2 T10111078
VFR -1.1°C / -8.3°C 340º 13kt Gust 21kt >10km - Broken Clouds 5000ft 1025 - KHYA 210356Z AUTO 34013G21KT 10SM BKN050 M01/M08 A3027 RMK AO2 PK WND 36026/0259 SLP251 T10111083
VFR -0.6°C / -8.9°C 350º 15kt Gust 24kt >10km - Overcast 4700ft 1024 - KHYA 210256Z 35015G24KT 10SM OVC047 M01/M09 A3025 RMK AO2 PK WND 36026/0231 SLP244 T10061089 53024
VFR 0°C / -8.3°C 350º 13kt Gust 25kt >10km - Overcast 4700ft 1023 - KHYA 210156Z 35013G25KT 10SM OVC047 00/M08 A3021 RMK AO2 SLP232 T00001083
VFR 1.1°C / -8.9°C 360º 13kt Gust 21kt >10km - Overcast 4300ft 1022 - KHYA 210056Z 36013G21KT 10SM OVC043 01/M09 A3021 RMK AO2 SLP229 T00111089
VFR 1.7°C / -6.7°C 360º 12kt Gust 19kt >10km - Overcast 3400ft 1021 - KHYA 202356Z 36012G19KT 10SM OVC034 02/M07 A3017 RMK AO2 SLP218 60000 T00171067 10028 20017 52027
VFR 1.7°C / -4.4°C 360º 10kt Gust 16kt >10km - Overcast 3200ft 1020 - KHYA 202256Z 36010G16KT 10SM OVC032 02/M04 A3015 RMK AO2 SLP209 T00171044
MVFR 2.2°C / -4.4°C 360º 11kt Gust 19kt >10km - Overcast 3000ft - KHYA 202241Z 36011G19KT 10SM OVC030 02/M04 A3014 RMK AO2 T00221044
MVFR 2.2°C / -1.7°C 20º 12kt >10km 0.13mm precipitation Overcast 2500ft 1020 - KHYA 202156Z 02012KT 10SM OVC025 02/M02 A3012 RMK AO2 UPE01 SLP200 P0000 T00221017
MVFR 2.2°C / -0.6°C 20º 8kt >10km 0.13mm precipitation Few Clouds 1600ft
Overcast 2500ft
- KHYA 202136Z 02008KT 10SM FEW016 OVC025 02/M01 A3011 RMK AO2 UPE01 P0000 T00221006
IFR 2.2°C / 0°C 10º 9kt 9700m Mist Unknown Precipitation 0.13mm precipitation Overcast 700ft 1019 - KHYA 202056Z 01009KT 6SM UP BR OVC007 02/00 A3009 RMK AO2 UPB18SNE18 SLP191 P0000 60000 T00220000 53017
IFR 2.2°C / 0°C 330º 6kt 4800m Light Snow Mist 0.13mm precipitation Overcast 700ft 1018 - KHYA 201956Z 33006KT 3SM -SN BR OVC007 02/00 A3008 RMK AO2 UPB06E26B46E47SNB26E46B47 SLP185 P0000 T00220000

MVFR

-2.8°C / -7.8°C

[Mehr]
Wind 10º 10kt Gust 19kt
Sichtweite 9700m
Wetter Light Snow 0.13mm precipitation
Wolken Scattered Clouds 800ft
Broken Clouds 2300ft
Overcast 3600ft
Druck
Änderung -
Roh KHYA 211222Z 01010G19KT 6SM -SN SCT008 BKN023 OVC036 M03/M08 A3041 RMK AO2 SNB01 P0000 T10281078

MVFR

-2.8°C / -8.3°C

[Mehr]
Wind 360º 12kt Gust 20kt
Sichtweite >10km
Wetter 0.13mm precipitation
Wolken Scattered Clouds 2300ft
Broken Clouds 2900ft
Overcast 3600ft
Druck 1029
Änderung -
Roh KHYA 211156Z 36012G20KT 10SM SCT023 BKN029 OVC036 M03/M08 A3040 RMK AO2 SNE50 SLP295 P0000 60000 70009 T10281083 11011 21028 53026

MVFR

-2.2°C / -7.8°C

[Mehr]
Wind 360º 12kt Gust 20kt
Sichtweite 9700m
Wetter Light Snow 0.13mm precipitation
Wolken Broken Clouds 2300ft
Overcast 3300ft
Druck 1028
Änderung -
Roh KHYA 211056Z 36012G20KT 6SM -SN BKN023 OVC033 M02/M08 A3037 RMK AO2 SNB03 SLP287 P0000 T10221078

MVFR

-2.2°C / -7.8°C

[Mehr]
Wind 10º 9kt Gust 21kt
Sichtweite >10km
Wetter Light Snow 0.13mm precipitation
Wolken Scattered Clouds 2300ft
Broken Clouds 2900ft
Overcast 3800ft
Druck
Änderung -
Roh KHYA 211020Z AUTO 01009G21KT 8SM -SN SCT023 BKN029 OVC038 M02/M08 A3034 RMK AO2 SNB03 P0000 T10221078

VFR

-2.2°C / -8.3°C

[Mehr]
Wind 20º 11kt Gust 20kt
Sichtweite >10km
Wetter Light Snow 0.13mm precipitation
Wolken Scattered Clouds 2700ft
Overcast 3800ft
Druck
Änderung -
Roh KHYA 211003Z AUTO 02011G20KT 10SM -SN SCT027 OVC038 M02/M08 A3035 RMK AO2 SNB03 P0000 T10221083

MVFR

-2.2°C / -8.3°C

[Mehr]
Wind 30º 12kt Gust 20kt
Sichtweite >10km
Wetter -
Wolken Broken Clouds 2700ft
Overcast 3800ft
Druck 1027
Änderung -
Roh KHYA 210956Z AUTO 03012G20KT 10SM BKN027 OVC038 M02/M08 A3034 RMK AO2 SLP276 T10221083

VFR

-2.2°C / -7.2°C

[Mehr]
Wind 10º 14kt
Sichtweite >10km
Wetter 0.13mm precipitation
Wolken Few Clouds 2200ft
Few Clouds 2900ft
Overcast 3600ft
Druck 1026
Änderung -
Roh KHYA 210856Z AUTO 01014KT 9SM FEW022 FEW029 OVC036 M02/M07 A3032 RMK AO2 SNE54 SLP269 P0000 60000 T10221072 50005

MVFR

-1.7°C / -6.1°C

[Mehr]
Wind 10º 13kt Gust 22kt
Sichtweite 9700m
Wetter Light Snow 0.13mm precipitation
Wolken Broken Clouds 1900ft
Broken Clouds 2700ft
Overcast 3500ft
Druck 1026
Änderung -
Roh KHYA 210756Z AUTO 01013G22KT 6SM -SN BKN019 BKN027 OVC035 M02/M06 A3032 RMK AO2 SNB05 SLP268 P0000 T10171061

MVFR

-1.7°C / -7.2°C

[Mehr]
Wind 20º 16kt Gust 24kt
Sichtweite >10km
Wetter Light Snow 0.13mm precipitation
Wolken Scattered Clouds 2100ft
Broken Clouds 2800ft
Overcast 3500ft
Druck
Änderung -
Roh KHYA 210707Z AUTO 02016G24KT 8SM -SN SCT021 BKN028 OVC035 M02/M07 A3031 RMK AO2 SNB05 P0000 T10171072

VFR

-1.1°C / -7.2°C

[Mehr]
Wind 360º 12kt Gust 20kt
Sichtweite >10km
Wetter 0.13mm precipitation
Wolken Few Clouds 2300ft
Overcast 3300ft
Druck 1026
Änderung -
Roh KHYA 210656Z AUTO 36012G20KT 10SM FEW023 OVC033 M01/M07 A3031 RMK AO2 SNB26E38 SLP264 P0000 T10111072

MVFR

-1.1°C / -6.7°C

[Mehr]
Wind 350º 13kt Gust 22kt
Sichtweite >10km
Wetter -
Wolken Broken Clouds 2800ft
Overcast 3500ft
Druck 1025
Änderung -
Roh KHYA 210556Z AUTO 35013G22KT 10SM BKN028 OVC035 M01/M07 A3029 RMK AO2 SLP257 T10111067 10017 21011 53014

MVFR

-1.1°C / -7.8°C

[Mehr]
Wind 350º 14kt Gust 22kt
Sichtweite >10km
Wetter -
Wolken Broken Clouds 2900ft
Overcast 5000ft
Druck 1025
Änderung -
Roh KHYA 210456Z AUTO 35014G22KT 10SM BKN029 OVC050 M01/M08 A3026 RMK AO2 SLP250 T10111078 400781011

MVFR

-1.1°C / -7.8°C

[Mehr]
Wind 360º 14kt Gust 22kt
Sichtweite >10km
Wetter -
Wolken Broken Clouds 2900ft
Broken Clouds 5500ft
Druck
Änderung -
Roh KHYA 210431Z AUTO 36014G22KT 10SM BKN029 BKN055 M01/M08 A3027 RMK AO2 T10111078

VFR

-1.1°C / -8.3°C

[Mehr]
Wind 340º 13kt Gust 21kt
Sichtweite >10km
Wetter -
Wolken Broken Clouds 5000ft
Druck 1025
Änderung -
Roh KHYA 210356Z AUTO 34013G21KT 10SM BKN050 M01/M08 A3027 RMK AO2 PK WND 36026/0259 SLP251 T10111083

VFR

-0.6°C / -8.9°C

[Mehr]
Wind 350º 15kt Gust 24kt
Sichtweite >10km
Wetter -
Wolken Overcast 4700ft
Druck 1024
Änderung -
Roh KHYA 210256Z 35015G24KT 10SM OVC047 M01/M09 A3025 RMK AO2 PK WND 36026/0231 SLP244 T10061089 53024

VFR

0°C / -8.3°C

[Mehr]
Wind 350º 13kt Gust 25kt
Sichtweite >10km
Wetter -
Wolken Overcast 4700ft
Druck 1023
Änderung -
Roh KHYA 210156Z 35013G25KT 10SM OVC047 00/M08 A3021 RMK AO2 SLP232 T00001083

VFR

1.1°C / -8.9°C

[Mehr]
Wind 360º 13kt Gust 21kt
Sichtweite >10km
Wetter -
Wolken Overcast 4300ft
Druck 1022
Änderung -
Roh KHYA 210056Z 36013G21KT 10SM OVC043 01/M09 A3021 RMK AO2 SLP229 T00111089

VFR

1.7°C / -6.7°C

[Mehr]
Wind 360º 12kt Gust 19kt
Sichtweite >10km
Wetter -
Wolken Overcast 3400ft
Druck 1021
Änderung -
Roh KHYA 202356Z 36012G19KT 10SM OVC034 02/M07 A3017 RMK AO2 SLP218 60000 T00171067 10028 20017 52027

VFR

1.7°C / -4.4°C

[Mehr]
Wind 360º 10kt Gust 16kt
Sichtweite >10km
Wetter -
Wolken Overcast 3200ft
Druck 1020
Änderung -
Roh KHYA 202256Z 36010G16KT 10SM OVC032 02/M04 A3015 RMK AO2 SLP209 T00171044

MVFR

2.2°C / -4.4°C

[Mehr]
Wind 360º 11kt Gust 19kt
Sichtweite >10km
Wetter -
Wolken Overcast 3000ft
Druck
Änderung -
Roh KHYA 202241Z 36011G19KT 10SM OVC030 02/M04 A3014 RMK AO2 T00221044

MVFR

2.2°C / -1.7°C

[Mehr]
Wind 20º 12kt
Sichtweite >10km
Wetter 0.13mm precipitation
Wolken Overcast 2500ft
Druck 1020
Änderung -
Roh KHYA 202156Z 02012KT 10SM OVC025 02/M02 A3012 RMK AO2 UPE01 SLP200 P0000 T00221017

MVFR

2.2°C / -0.6°C

[Mehr]
Wind 20º 8kt
Sichtweite >10km
Wetter 0.13mm precipitation
Wolken Few Clouds 1600ft
Overcast 2500ft
Druck
Änderung -
Roh KHYA 202136Z 02008KT 10SM FEW016 OVC025 02/M01 A3011 RMK AO2 UPE01 P0000 T00221006

IFR

2.2°C / 0°C

[Mehr]
Wind 10º 9kt
Sichtweite 9700m
Wetter Mist Unknown Precipitation 0.13mm precipitation
Wolken Overcast 700ft
Druck 1019
Änderung -
Roh KHYA 202056Z 01009KT 6SM UP BR OVC007 02/00 A3009 RMK AO2 UPB18SNE18 SLP191 P0000 60000 T00220000 53017

IFR

2.2°C / 0°C

[Mehr]
Wind 330º 6kt
Sichtweite 4800m
Wetter Light Snow Mist 0.13mm precipitation
Wolken Overcast 700ft
Druck 1018
Änderung -
Roh KHYA 201956Z 33006KT 3SM -SN BR OVC007 02/00 A3008 RMK AO2 UPB06E26B46E47SNB26E46B47 SLP185 P0000 T00220000

TAF für Barnstable (KHYA)

From till


From till Wind 10º 14kt. Gust 25kt. Visibility 9700m. Light Showers Snow Mist . Overcast 2500ft.
Temporarly from till Visibility 3200m. Light Showers Snow Mist .
From till Wind 10º 14kt. Gust 25kt. Visibility 6400m. Light Showers Snow Mist . Overcast 3000ft.
From till Wind 10º 12kt. Gust 24kt. Visibility 10km or more. in the Vicinity Showers . Overcast 3500ft.
From till Wind 30º 10kt. Gust 21kt. Visibility 3200m. Light Showers Snow Mist . Overcast 3000ft.

Roh: KHYA 211122Z 2112/2212 01014G25KT 6SM -SHSN BR OVC025 TEMPO 2112/2115 2SM -SHSN BR FM211500 01014G25KT 4SM -SHSN BR OVC030 FM211900 01012G24KT P6SM VCSH OVC035 FM221100 03010G21KT 2SM -SHSN BR OVC030

Radar- und Niederschlags-Nowcast für Barnstable

Nieselregen
Leicht
Moderat
Stark
Sehr schwer
Hagel

Die Ortsmarkierung zeigt auf Barnstable. Diese Animation zeigt das Niederschlagsradar der letzten Stunde, sowie eine 1h Vorhersage. Nieselregen und leichter Schneefall können für das Radar unsichtbar sein. Die Niederschlagsintensität ist farbcodiert von Hellblau bis Orange.

Aktuelle Satellitenbilder für Barnstable, USA

Die Standortmarkierung ist platziert auf Barnstable. [Mehr]

Das Echtzeit-Satellitenbild kombiniert sichtbares Licht während des Tages mit Infrarotstrahlung während der Nacht. Nachts ist das Bild nicht dunkel, da Infrarotstrahlung Temperaturunterschiede erkennen kann. Leider sind niedrige Wolken und Nebel nur schwer von den Bodentemperaturen zu unterscheiden und können daher nachts fast unsichtbar sein. Meteosat-Satellitenbilder für Europa werden alle 5 Minuten in Echtzeit aktualisiert. Die Bilder GOES-16 / GOES-17 (Nord- und Südamerika) und Himawari (Asien) werden alle 10 Minuten aktualisiert.